Time,TemperatureF,DewpointF,PressureIn,WindDirection,WindDirectionDegrees,WindSpeedMPH,WindSpeedGustMPH,Humidity,HourlyPrecipIn,Conditions,Clouds,dailyrainin,SoftwareType,DateUTC
2013-02-21 00:00:00,68.4,66.9,30.01,East,97,0.0,2.0,95,0.00,,---,0.00,VWS V14.01,2013-02-21 05:00:00,
2013-02-21 00:01:00,68.3,66.8,30.01,East,97,0.0,2.0,95,0.00,,---,0.00,VWS V14.01,2013-02-21 05:01:00,
2013-02-21 00:02:00,68.3,66.8,30.01,East,97,0.0,2.0,95,0.00,,---,0.00,VWS V14.01,2013-02-21 05:02:00,
2013-02-21 00:07:00,67.9,66.4,30.01,East,97,0.0,0.0,95,0.00,,---,0.00,VWS V14.01,2013-02-21 05:07:00,
2013-02-21 00:12:00,67.6,66.4,30.01,East,97,0.0,0.0,96,0.00,,---,0.00,VWS V14.01,2013-02-21 05:12:00,
2013-02-21 00:17:00,67.4,66.5,30.00,East,97,0.0,0.0,97,0.00,,---,0.00,VWS V14.01,2013-02-21 05:17:00,
2013-02-21 00:22:00,67.3,66.4,30.00,East,97,0.0,0.0,97,0.00,,---,0.00,VWS V14.01,2013-02-21 05:22:00,
2013-02-21 00:27:00,67.1,66.5,30.00,East,97,0.0,0.0,98,0.00,,---,0.00,VWS V14.01,2013-02-21 05:27:00,
2013-02-21 00:32:00,67.1,66.5,30.00,East,97,0.0,0.0,98,0.00,,---,0.00,VWS V14.01,2013-02-21 05:32:00,
2013-02-21 00:37:00,67.3,67.0,30.00,East,97,0.0,0.0,99,0.00,,---,0.00,VWS V14.01,2013-02-21 05:37:00,
2013-02-21 00:42:00,67.1,66.5,30.00,East,97,0.0,0.0,98,0.00,,---,0.00,VWS V14.01,2013-02-21 05:42:00,
2013-02-21 00:47:00,67.1,66.8,29.99,East,97,0.0,0.0,99,0.00,,---,0.00,VWS V14.01,2013-02-21 05:47:00,
2013-02-21 00:52:00,67.1,66.8,29.99,East,97,0.0,0.0,99,0.00,,---,0.00,VWS V14.01,2013-02-21 05:52:00,
2013-02-21 00:58:00,67.1,66.5,29.99,East,97,0.0,0.0,98,0.00,,---,0.00,VWS V14.01,2013-02-21 05:58:00,
2013-02-21 01:03:00,67.1,66.8,29.99,East,97,0.0,0.0,99,0.00,,---,0.00,VWS V14.01,2013-02-21 06:03:00,
2013-02-21 01:08:00,67.1,66.8,29.99,East,97,0.0,0.0,99,0.00,,---,0.00,VWS V14.01,2013-02-21 06:08:00,
2013-02-21 01:13:00,67.1,66.8,29.99,East,97,0.0,0.0,99,0.00,,---,0.00,VWS V14.01,2013-02-21 06:13:00,
2013-02-21 01:18:00,67.1,66.8,29.99,East,97,0.0,0.0,99,0.00,,---,0.00,VWS V14.01,2013-02-21 06:18:00,
2013-02-21 01:23:00,67.1,66.8,29.99,East,97,0.0,0.0,99,0.00,,---,0.00,VWS V14.01,2013-02-21 06:23:00,
2013-02-21 01:28:00,67.1,66.8,29.99,East,97,0.0,0.0,99,0.00,,---,0.00,VWS V14.01,2013-02-21 06:28:00,
2013-02-21 01:33:00,66.8,66.5,29.98,East,97,0.0,0.0,99,0.00,,---,0.00,VWS V14.01,2013-02-21 06:33:00,
2013-02-21 01:38:00,66.6,66.6,29.98,East,97,0.0,0.0,100,0.00,,---,0.00,VWS V14.01,2013-02-21 06:38:00,
2013-02-21 01:43:00,66.4,66.4,29.98,East,97,0.0,0.0,100,0.00,,---,0.00,VWS V14.01,2013-02-21 06:43:00,
2013-02-21 01:48:00,66.3,66.3,29.97,East,97,0.0,0.0,100,0.00,,---,0.00,VWS V14.01,2013-02-21 06:48:00,
2013-02-21 01:53:00,66.3,66.3,29.97,East,97,0.0,0.0,100,0.00,,---,0.00,VWS V14.01,2013-02-21 06:53:00,
2013-02-21 01:58:00,66.4,66.4,29.97,East,97,0.0,0.0,100,0.00,,---,0.00,VWS V14.01,2013-02-21 06:58:00,
2013-02-21 02:03:00,66.4,66.4,29.97,East,97,0.0,0.0,100,0.00,,---,0.00,VWS V14.01,2013-02-21 07:03:00,
2013-02-21 02:08:00,66.1,66.1,29.97,East,97,0.0,0.0,100,0.00,,---,0.00,VWS V14.01,2013-02-21 07:08:00,
2013-02-21 02:13:00,65.8,65.8,29.97,East,97,0.0,0.0,100,0.00,,---,0.00,VWS V14.01,2013-02-21 07:13:00,
2013-02-21 02:18:00,66.0,66.0,29.96,East,97,0.0,0.0,100,0.00,,---,0.00,VWS V14.01,2013-02-21 07:18:00,
2013-02-21 02:24:00,66.3,66.3,29.96,East,97,0.0,0.0,100,0.00,,---,0.00,VWS V14.01,2013-02-21 07:24:00,
2013-02-21 02:29:00,66.3,66.3,29.96,East,97,0.0,0.0,100,0.00,,---,0.00,VWS V14.01,2013-02-21 07:29:00,
2013-02-21 02:34:00,66.1,66.1,29.95,East,97,0.0,0.0,100,0.00,,---,0.00,VWS V14.01,2013-02-21 07:34:00,
2013-02-21 02:39:00,66.3,66.3,29.95,East,97,0.0,0.0,100,0.00,,---,0.00,VWS V14.01,2013-02-21 07:39:00,
2013-02-21 02:44:00,66.1,66.1,29.95,East,97,0.0,0.0,100,0.00,,---,0.00,VWS V14.01,2013-02-21 07:44:00,
2013-02-21 02:49:00,66.0,66.0,29.94,East,97,0.0,0.0,100,0.00,,---,0.00,VWS V14.01,2013-02-21 07:49:00,
2013-02-21 02:54:00,66.0,66.0,29.94,East,97,0.0,0.0,100,0.00,,---,0.00,VWS V14.01,2013-02-21 07:54:00,
2013-02-21 02:59:00,66.3,66.3,29.94,East,97,0.0,0.0,100,0.00,,---,0.00,VWS V14.01,2013-02-21 07:59:00,
2013-02-21 03:04:00,66.3,66.3,29.94,East,97,0.0,1.0,100,0.00,,---,0.00,VWS V14.01,2013-02-21 08:04:00,
2013-02-21 03:09:00,66.1,66.1,29.94,East,97,0.0,1.0,100,0.00,,---,0.00,VWS V14.01,2013-02-21 08:09:00,
2013-02-21 03:14:00,66.3,66.3,29.94,East,97,0.0,1.0,100,0.00,,---,0.00,VWS V14.01,2013-02-21 08:14:00,
2013-02-21 03:19:00,66.1,66.1,29.94,East,97,0.0,2.0,100,0.00,,---,0.00,VWS V14.01,2013-02-21 08:19:00,
2013-02-21 03:24:00,66.4,66.4,29.94,East,97,2.0,2.0,100,0.00,,---,0.00,VWS V14.01,2013-02-21 08:24:00,
2013-02-21 03:29:00,66.8,66.8,29.94,East,97,0.0,2.0,100,0.00,,---,0.00,VWS V14.01,2013-02-21 08:29:00,
2013-02-21 03:34:00,66.8,66.8,29.93,East,97,0.0,0.0,100,0.00,,---,0.00,VWS V14.01,2013-02-21 08:34:00,
2013-02-21 03:39:00,66.8,66.8,29.93,East,97,0.0,1.0,100,0.00,,---,0.00,VWS V14.01,2013-02-21 08:39:00,
2013-02-21 03:44:00,66.9,66.9,29.93,East,97,1.0,1.0,100,0.00,,---,0.00,VWS V14.01,2013-02-21 08:44:00,
2013-02-21 03:50:00,66.8,66.8,29.93,East,97,0.0,1.0,100,0.00,,---,0.00,VWS V14.01,2013-02-21 08:50:00,
2013-02-21 03:55:00,67.1,67.1,29.93,East,97,0.0,1.0,100,0.00,,---,0.00,VWS V14.01,2013-02-21 08:55:00,
2013-02-21 04:00:00,66.9,66.9,29.93,East,97,0.0,1.0,100,0.00,,---,0.00,VWS V14.01,2013-02-21 09:00:00,
2013-02-21 04:05:00,66.9,66.9,29.93,East,97,0.0,0.0,100,0.00,,---,0.00,VWS V14.01,2013-02-21 09:05:00,
2013-02-21 04:10:00,66.8,66.8,29.93,East,97,0.0,0.0,100,0.00,,---,0.00,VWS V14.01,2013-02-21 09:10:00,
2013-02-21 04:15:00,66.6,66.6,29.93,East,97,0.0,0.0,100,0.00,,---,0.00,VWS V14.01,2013-02-21 09:15:00,
2013-02-21 04:20:00,66.6,66.6,29.94,East,97,0.0,0.0,100,0.00,,---,0.00,VWS V14.01,2013-02-21 09:20:00,
2013-02-21 04:25:00,66.4,66.4,29.94,East,97,0.0,0.0,100,0.00,,---,0.00,VWS V14.01,2013-02-21 09:25:00,
2013-02-21 04:30:00,66.3,66.3,29.94,East,97,0.0,0.0,100,0.00,,---,0.00,VWS V14.01,2013-02-21 09:30:00,
2013-02-21 04:35:00,66.1,66.1,29.94,East,97,0.0,0.0,100,0.00,,---,0.00,VWS V14.01,2013-02-21 09:35:00,
2013-02-21 04:40:00,65.8,65.8,29.94,East,97,0.0,0.0,100,0.00,,---,0.00,VWS V14.01,2013-02-21 09:40:00,
2013-02-21 04:45:00,65.5,65.5,29.94,East,97,0.0,0.0,100,0.00,,---,0.00,VWS V14.01,2013-02-21 09:45:00,
2013-02-21 04:50:00,65.5,65.5,29.94,East,97,0.0,0.0,100,0.00,,---,0.00,VWS V14.01,2013-02-21 09:50:00,
2013-02-21 04:55:00,65.5,65.5,29.94,East,97,0.0,0.0,100,0.00,,---,0.00,VWS V14.01,2013-02-21 09:55:00,
2013-02-21 05:00:00,65.5,65.5,29.94,East,97,0.0,0.0,100,0.00,,---,0.00,VWS V14.01,2013-02-21 10:00:00,
2013-02-21 05:05:00,65.5,65.5,29.95,East,97,0.0,0.0,100,0.00,,---,0.00,VWS V14.01,2013-02-21 10:05:00,
2013-02-21 05:10:00,65.5,65.5,29.95,East,97,0.0,0.0,100,0.00,,---,0.00,VWS V14.01,2013-02-21 10:10:00,
2013-02-21 05:15:00,65.2,65.2,29.95,East,97,0.0,0.0,100,0.00,,---,0.00,VWS V14.01,2013-02-21 10:15:00,
2013-02-21 05:20:00,65.2,65.2,29.96,East,97,0.0,0.0,100,0.00,,---,0.00,VWS V14.01,2013-02-21 10:20:00,
2013-02-21 05:25:00,65.2,65.2,29.96,East,97,0.0,0.0,100,0.00,,---,0.00,VWS V14.01,2013-02-21 10:25:00,
2013-02-21 05:31:00,65.0,65.0,29.96,East,97,0.0,0.0,100,0.00,,---,0.00,VWS V14.01,2013-02-21 10:31:00,
2013-02-21 05:36:00,64.8,64.8,29.96,East,97,0.0,0.0,100,0.00,,---,0.00,VWS V14.01,2013-02-21 10:36:00,
2013-02-21 05:41:00,64.8,64.8,29.96,East,97,0.0,0.0,100,0.00,,---,0.00,VWS V14.01,2013-02-21 10:41:00,
2013-02-21 05:46:00,65.0,65.0,29.97,East,97,0.0,0.0,100,0.00,,---,0.00,VWS V14.01,2013-02-21 10:46:00,
2013-02-21 05:51:00,64.8,64.8,29.97,East,97,0.0,0.0,100,0.00,,---,0.00,VWS V14.01,2013-02-21 10:51:00,
2013-02-21 05:56:00,64.7,64.7,29.97,East,97,0.0,0.0,100,0.00,,---,0.00,VWS V14.01,2013-02-21 10:56:00,
2013-02-21 06:01:00,64.5,64.5,29.97,East,97,0.0,0.0,100,0.00,,---,0.00,VWS V14.01,2013-02-21 11:01:00,
2013-02-21 06:06:00,64.5,64.5,29.97,East,97,0.0,0.0,100,0.00,,---,0.00,VWS V14.01,2013-02-21 11:06:00,
2013-02-21 06:11:00,64.5,64.5,29.97,East,97,0.0,0.0,100,0.00,,---,0.00,VWS V14.01,2013-02-21 11:11:00,
2013-02-21 06:16:00,64.7,64.7,29.97,East,97,0.0,0.0,100,0.00,,---,0.00,VWS V14.01,2013-02-21 11:16:00,
2013-02-21 06:21:00,64.5,64.5,29.97,East,97,0.0,0.0,100,0.00,,---,0.00,VWS V14.01,2013-02-21 11:21:00,
2013-02-21 06:26:00,64.5,64.5,29.97,East,97,0.0,0.0,100,0.00,,---,0.00,VWS V14.01,2013-02-21 11:26:00,
2013-02-21 06:31:00,64.2,64.2,29.97,East,97,0.0,0.0,100,0.00,,---,0.00,VWS V14.01,2013-02-21 11:31:00,
2013-02-21 06:36:00,64.3,64.3,29.97,East,97,0.0,0.0,100,0.00,,---,0.00,VWS V14.01,2013-02-21 11:36:00,
2013-02-21 06:41:00,64.2,64.2,29.97,East,97,0.0,0.0,100,0.00,,---,0.00,VWS V14.01,2013-02-21 11:41:00,
2013-02-21 06:46:00,64.3,64.3,29.98,East,97,0.0,0.0,100,0.00,,---,0.00,VWS V14.01,2013-02-21 11:46:00,
2013-02-21 06:51:00,64.3,64.3,29.98,East,97,0.0,0.0,100,0.00,,---,0.00,VWS V14.01,2013-02-21 11:51:00,
2013-02-21 06:57:00,64.5,64.5,29.98,SSE,147,0.0,0.0,100,0.00,,---,0.00,VWS V14.01,2013-02-21 11:57:00,
2013-02-21 07:02:00,64.5,64.5,29.99,SSE,147,0.0,0.0,100,0.00,,---,0.00,VWS V14.01,2013-02-21 12:02:00,
2013-02-21 07:07:00,64.5,64.5,29.99,SSE,147,0.0,0.0,100,0.00,,---,0.00,VWS V14.01,2013-02-21 12:07:00,
2013-02-21 07:12:00,64.5,64.5,29.99,SSE,147,0.0,0.0,100,0.00,,---,0.00,VWS V14.01,2013-02-21 12:12:00,
2013-02-21 07:17:00,64.5,64.5,29.99,SSE,147,0.0,0.0,100,0.00,,---,0.00,VWS V14.01,2013-02-21 12:17:00,
2013-02-21 07:22:00,64.7,64.7,29.99,SSE,147,0.0,0.0,100,0.00,,---,0.00,VWS V14.01,2013-02-21 12:22:00,
2013-02-21 07:27:00,64.8,64.8,29.99,SSE,147,0.0,0.0,100,0.00,,---,0.00,VWS V14.01,2013-02-21 12:27:00,
2013-02-21 07:32:00,64.7,64.7,29.99,SSE,147,0.0,0.0,100,0.00,,---,0.00,VWS V14.01,2013-02-21 12:32:00,
2013-02-21 07:37:00,65.0,65.0,29.99,SSE,147,0.0,0.0,100,0.00,,---,0.00,VWS V14.01,2013-02-21 12:37:00,
2013-02-21 07:42:00,65.0,65.0,29.99,SSE,147,0.0,0.0,100,0.00,,---,0.00,VWS V14.01,2013-02-21 12:42:00,
2013-02-21 07:47:00,65.3,65.3,30.00,SSE,147,0.0,0.0,100,0.00,,---,0.00,VWS V14.01,2013-02-21 12:47:00,
2013-02-21 07:52:00,66.1,66.1,30.00,SSE,147,0.0,0.0,100,0.00,,---,0.00,VWS V14.01,2013-02-21 12:52:00,
2013-02-21 07:57:00,66.9,66.9,30.00,SSE,147,0.0,0.0,100,0.00,,---,0.00,VWS V14.01,2013-02-21 12:57:00,
2013-02-21 08:03:00,67.4,67.4,30.00,SSE,147,0.0,0.0,100,0.00,,---,0.00,VWS V14.01,2013-02-21 13:03:00,
2013-02-21 08:08:00,67.9,67.9,30.00,SSE,147,0.0,0.0,100,0.00,,---,0.00,VWS V14.01,2013-02-21 13:08:00,
2013-02-21 08:13:00,68.6,68.6,30.00,SSE,147,0.0,0.0,100,0.00,,---,0.00,VWS V14.01,2013-02-21 13:13:00,
2013-02-21 08:18:00,69.4,69.4,30.01,SSE,147,0.0,0.0,100,0.00,,---,0.00,VWS V14.01,2013-02-21 13:18:00,
2013-02-21 08:23:00,70.1,70.1,30.01,SSE,147,2.0,2.0,100,0.00,,---,0.00,VWS V14.01,2013-02-21 13:23:00,
2013-02-21 08:28:00,70.4,70.4,30.01,SSE,147,0.0,2.0,100,0.00,,---,0.00,VWS V14.01,2013-02-21 13:28:00,
2013-02-21 08:33:00,70.8,70.2,30.01,SSE,147,0.0,0.0,98,0.00,,---,0.00,VWS V14.01,2013-02-21 13:33:00,
2013-02-21 08:38:00,71.3,70.1,30.01,SSE,147,0.0,2.0,96,0.00,,---,0.00,VWS V14.01,2013-02-21 13:38:00,
2013-02-21 08:43:00,72.0,70.5,30.01,SSE,147,0.0,2.0,95,0.00,,---,0.00,VWS V14.01,2013-02-21 13:43:00,
2013-02-21 08:48:00,73.3,71.2,30.02,SSE,147,0.0,2.0,93,0.00,,---,0.00,VWS V14.01,2013-02-21 13:48:00,
2013-02-21 08:53:00,74.0,70.2,30.02,SSE,147,0.0,3.0,88,0.00,,---,0.00,VWS V14.01,2013-02-21 13:53:00,
2013-02-21 08:58:00,74.9,69.7,30.02,SE,146,1.0,4.0,84,0.00,,---,0.00,VWS V14.01,2013-02-21 13:58:00,
2013-02-21 09:03:00,76.0,69.8,30.02,SE,144,1.0,2.0,81,0.00,,---,0.00,VWS V14.01,2013-02-21 14:03:00,
2013-02-21 09:08:00,76.8,69.4,30.02,SE,141,1.0,3.0,78,0.00,,---,0.00,VWS V14.01,2013-02-21 14:08:00,
2013-02-21 09:13:00,77.2,68.3,30.02,East,92,4.0,5.0,74,0.00,,---,0.00,VWS V14.01,2013-02-21 14:13:00,
2013-02-21 09:18:00,77.7,67.6,30.03,ENE,78,4.0,7.0,71,0.00,,---,0.00,VWS V14.01,2013-02-21 14:18:00,
2013-02-21 09:23:00,78.1,67.5,30.03,ESE,111,1.0,10.0,70,0.00,,---,0.00,VWS V14.01,2013-02-21 14:23:00,
2013-02-21 09:28:00,77.9,66.9,30.03,ESE,113,1.0,10.0,69,0.00,,---,0.00,VWS V14.01,2013-02-21 14:28:00,
2013-02-21 09:33:00,78.6,67.2,30.02,ESE,113,2.0,3.0,68,0.00,,---,0.00,VWS V14.01,2013-02-21 14:33:00,
2013-02-21 09:39:00,79.0,67.1,30.02,ESE,113,0.0,6.0,67,0.00,,---,0.00,VWS V14.01,2013-02-21 14:39:00,
2013-02-21 09:44:00,78.8,66.5,30.02,ESE,123,0.0,6.0,66,0.00,,---,0.00,VWS V14.01,2013-02-21 14:44:00,
2013-02-21 09:49:00,78.8,66.1,30.02,ESE,118,3.0,8.0,65,0.00,,---,0.00,VWS V14.01,2013-02-21 14:49:00,
2013-02-21 09:54:00,79.8,66.1,30.02,ESE,115,2.0,8.0,63,0.00,,---,0.00,VWS V14.01,2013-02-21 14:54:00,
2013-02-21 09:59:00,80.1,66.8,30.02,SE,124,2.0,8.0,64,0.00,,---,0.00,VWS V14.01,2013-02-21 14:59:00,
2013-02-21 10:04:00,80.3,66.1,30.02,ESE,114,5.0,6.0,62,0.00,,---,0.00,VWS V14.01,2013-02-21 15:04:00,
2013-02-21 10:09:00,80.5,66.3,30.02,ESE,112,6.0,9.0,62,0.00,,---,0.00,VWS V14.01,2013-02-21 15:09:00,
2013-02-21 10:14:00,80.3,66.6,30.02,ESE,119,4.0,9.0,63,0.00,,---,0.00,VWS V14.01,2013-02-21 15:14:00,
2013-02-21 10:19:00,80.5,66.8,30.02,ESE,123,2.0,9.0,63,0.00,,---,0.00,VWS V14.01,2013-02-21 15:19:00,
2013-02-21 10:24:00,81.1,67.3,30.02,SE,126,4.0,9.0,63,0.00,,---,0.00,VWS V14.01,2013-02-21 15:24:00,
2013-02-21 10:29:00,81.2,66.5,30.02,East,94,3.0,9.0,61,0.00,,---,0.00,VWS V14.01,2013-02-21 15:29:00,
2013-02-21 10:34:00,81.6,66.4,30.02,ESE,110,3.0,5.0,60,0.00,,---,0.00,VWS V14.01,2013-02-21 15:34:00,
2013-02-21 10:39:00,82.0,66.3,30.02,ESE,109,4.0,7.0,59,0.00,,---,0.00,VWS V14.01,2013-02-21 15:39:00,
2013-02-21 10:44:00,82.2,66.0,30.02,ESE,121,5.0,11.0,58,0.00,,---,0.00,VWS V14.01,2013-02-21 15:44:00,
2013-02-21 10:49:00,81.8,66.1,30.02,ESE,104,6.0,11.0,59,0.00,,---,0.00,VWS V14.01,2013-02-21 15:49:00,
2013-02-21 10:54:00,82.6,66.8,30.02,ESE,118,9.0,11.0,59,0.00,,---,0.00,VWS V14.01,2013-02-21 15:54:00,
2013-02-21 11:00:00,82.0,66.3,30.02,East,101,5.0,11.0,59,0.00,,---,0.00,VWS V14.01,2013-02-21 16:00:00,
2013-02-21 11:05:00,81.6,66.4,30.02,East,90,3.0,5.0,60,0.00,,---,0.00,VWS V14.01,2013-02-21 16:05:00,
2013-02-21 11:10:00,81.1,66.4,30.02,ESE,106,2.0,9.0,61,0.00,,---,0.00,VWS V14.01,2013-02-21 16:10:00,
2013-02-21 11:15:00,81.6,66.9,30.02,ESE,119,0.0,9.0,61,0.00,,---,0.00,VWS V14.01,2013-02-21 16:15:00,
2013-02-21 11:20:00,81.8,66.6,30.02,East,90,3.0,9.0,60,0.00,,---,0.00,VWS V14.01,2013-02-21 16:20:00,
2013-02-21 11:25:00,81.6,67.3,30.02,East,86,5.0,9.0,62,0.00,,---,0.00,VWS V14.01,2013-02-21 16:25:00,
2013-02-21 11:30:00,81.2,66.5,30.02,ENE,63,5.0,9.0,61,0.00,,---,0.00,VWS V14.01,2013-02-21 16:30:00,
2013-02-21 11:35:00,82.2,66.9,30.02,SE,131,2.0,10.0,60,0.00,,---,0.00,VWS V14.01,2013-02-21 16:35:00,
2013-02-21 11:40:00,82.8,67.5,30.02,SE,129,1.0,10.0,60,0.00,,---,0.00,VWS V14.01,2013-02-21 16:40:00,
2013-02-21 11:45:00,82.8,66.5,30.02,ESE,115,2.0,10.0,58,0.00,,---,0.00,VWS V14.01,2013-02-21 16:45:00,
2013-02-21 11:50:00,82.2,66.9,30.02,East,98,4.0,10.0,60,0.00,,---,0.00,VWS V14.01,2013-02-21 16:50:00,
2013-02-21 11:55:00,81.6,65.9,30.02,ESE,105,2.0,10.0,59,0.00,,---,0.00,VWS V14.01,2013-02-21 16:55:00,
2013-02-21 12:00:00,81.6,66.9,30.02,East,79,4.0,10.0,61,0.00,,---,0.00,VWS V14.01,2013-02-21 17:00:00,
2013-02-21 12:05:00,82.8,67.0,30.02,SE,124,2.0,5.0,59,0.00,,---,0.00,VWS V14.01,2013-02-21 17:05:00,
2013-02-21 12:10:00,81.4,66.7,30.02,SE,130,3.0,5.0,61,0.00,,---,0.00,VWS V14.01,2013-02-21 17:10:00,
2013-02-21 12:15:00,80.7,66.5,30.02,ESE,114,2.0,6.0,62,0.00,,---,0.00,VWS V14.01,2013-02-21 17:15:00,
2013-02-21 12:20:00,81.1,66.9,30.01,ESE,118,2.0,6.0,62,0.00,,---,0.00,VWS V14.01,2013-02-21 17:20:00,
2013-02-21 12:25:00,80.7,66.0,30.01,East,80,4.0,8.0,61,0.00,,---,0.00,VWS V14.01,2013-02-21 17:25:00,
2013-02-21 12:31:00,80.3,65.6,30.01,ESE,104,3.0,8.0,61,0.00,,---,0.00,VWS V14.01,2013-02-21 17:31:00,
2013-02-21 12:36:00,80.1,66.8,30.01,ESE,116,2.0,5.0,64,0.00,,---,0.00,VWS V14.01,2013-02-21 17:36:00,
2013-02-21 12:41:00,80.1,66.4,30.01,East,88,3.0,5.0,63,0.00,,---,0.00,VWS V14.01,2013-02-21 17:41:00,
2013-02-21 12:46:00,80.1,65.9,30.00,ESE,112,1.0,5.0,62,0.00,,---,0.00,VWS V14.01,2013-02-21 17:46:00,
2013-02-21 12:51:00,80.3,65.6,30.00,ESE,107,4.0,7.0,61,0.00,,---,0.00,VWS V14.01,2013-02-21 17:51:00,
2013-02-21 12:56:00,80.1,65.9,30.00,ESE,102,1.0,7.0,62,0.00,,---,0.00,VWS V14.01,2013-02-21 17:56:00,
2013-02-21 13:01:00,81.2,66.5,30.00,ESE,106,6.0,9.0,61,0.00,,---,0.00,VWS V14.01,2013-02-21 18:01:00,
2013-02-21 13:06:00,80.7,66.5,30.00,SE,136,5.0,6.0,62,0.00,,---,0.00,VWS V14.01,2013-02-21 18:06:00,
2013-02-21 13:11:00,80.3,66.1,30.00,SE,128,2.0,6.0,62,0.00,,---,0.00,VWS V14.01,2013-02-21 18:11:00,
2013-02-21 13:16:00,80.9,67.1,29.99,SSE,163,2.0,6.0,63,0.00,,---,0.00,VWS V14.01,2013-02-21 18:16:00,
2013-02-21 13:21:00,80.5,66.8,29.99,ESE,106,3.0,12.0,63,0.00,,---,0.00,VWS V14.01,2013-02-21 18:21:00,
2013-02-21 13:26:00,80.1,66.4,29.99,East,82,3.0,12.0,63,0.00,,---,0.00,VWS V14.01,2013-02-21 18:26:00,
2013-02-21 13:31:00,81.1,67.3,29.99,SE,134,4.0,12.0,63,0.00,,---,0.00,VWS V14.01,2013-02-21 18:31:00,
2013-02-21 13:36:00,81.6,66.4,29.99,ESE,113,6.0,6.0,60,0.00,,---,0.00,VWS V14.01,2013-02-21 18:36:00,
2013-02-21 13:41:00,82.2,66.9,29.99,ESE,110,5.0,10.0,60,0.00,,---,0.00,VWS V14.01,2013-02-21 18:41:00,
2013-02-21 13:46:00,82.0,66.8,29.98,ESE,111,1.0,10.0,60,0.00,,---,0.00,VWS V14.01,2013-02-21 18:46:00,
2013-02-21 13:51:00,81.8,67.1,29.98,ESE,122,5.0,10.0,61,0.00,,---,0.00,VWS V14.01,2013-02-21 18:51:00,
2013-02-21 13:56:00,83.8,67.0,29.98,East,97,4.0,10.0,57,0.00,,---,0.00,VWS V14.01,2013-02-21 18:56:00,
2013-02-21 14:01:00,84.5,66.6,29.97,ESE,118,6.0,10.0,55,0.00,,---,0.00,VWS V14.01,2013-02-21 19:01:00,
2013-02-21 14:07:00,84.1,66.2,29.97,ESE,107,5.0,6.0,55,0.00,,---,0.00,VWS V14.01,2013-02-21 19:07:00,
2013-02-21 14:12:00,83.4,66.1,29.97,ESE,110,2.0,7.0,56,0.00,,---,0.00,VWS V14.01,2013-02-21 19:12:00,
2013-02-21 14:17:00,84.3,66.9,29.97,ESE,120,0.0,7.0,56,0.00,,---,0.00,VWS V14.01,2013-02-21 19:17:00,
2013-02-21 14:22:00,84.1,68.2,29.97,SE,129,6.0,7.0,59,0.00,,---,0.00,VWS V14.01,2013-02-21 19:22:00,
2013-02-21 14:27:00,83.8,67.0,29.97,SE,132,2.0,7.0,57,0.00,,---,0.00,VWS V14.01,2013-02-21 19:27:00,
2013-02-21 14:32:00,84.5,68.1,29.97,SE,130,4.0,7.0,58,0.00,,---,0.00,VWS V14.01,2013-02-21 19:32:00,
2013-02-21 14:37:00,84.0,66.1,29.97,ESE,106,3.0,8.0,55,0.00,,---,0.00,VWS V14.01,2013-02-21 19:37:00,
2013-02-21 14:42:00,83.2,66.4,29.97,ESE,118,4.0,12.0,57,0.00,,---,0.00,VWS V14.01,2013-02-21 19:42:00,
2013-02-21 14:47:00,83.4,67.1,29.96,ESE,114,4.0,12.0,58,0.00,,---,0.00,VWS V14.01,2013-02-21 19:47:00,
2013-02-21 14:52:00,82.0,66.8,29.96,ESE,111,2.0,12.0,60,0.00,,---,0.00,VWS V14.01,2013-02-21 19:52:00,
2013-02-21 14:57:00,83.0,67.2,29.96,ESE,112,7.0,12.0,59,0.00,,---,0.00,VWS V14.01,2013-02-21 19:57:00,
2013-02-21 15:02:00,83.0,67.7,29.96,SE,127,2.0,12.0,60,0.00,,---,0.00,VWS V14.01,2013-02-21 20:02:00,
2013-02-21 15:08:00,82.8,67.5,29.96,ESE,110,5.0,6.0,60,0.00,,---,0.00,VWS V14.01,2013-02-21 20:08:00,
2013-02-21 15:13:00,82.0,66.8,29.96,SE,132,4.0,8.0,60,0.00,,---,0.00,VWS V14.01,2013-02-21 20:13:00,
2013-02-21 15:18:00,81.2,66.5,29.96,East,96,6.0,10.0,61,0.00,,---,0.00,VWS V14.01,2013-02-21 20:18:00,
2013-02-21 15:23:00,82.4,66.7,29.96,SSE,150,2.0,10.0,59,0.00,,---,0.00,VWS V14.01,2013-02-21 20:23:00,
2013-02-21 15:28:00,82.2,67.4,29.96,East,89,1.0,10.0,61,0.00,,---,0.00,VWS V14.01,2013-02-21 20:28:00,
2013-02-21 15:33:00,82.8,67.5,29.96,SE,143,2.0,3.0,60,0.00,,---,0.00,VWS V14.01,2013-02-21 20:33:00,
2013-02-21 15:38:00,83.6,68.3,29.96,SE,142,5.0,5.0,60,0.00,,---,0.00,VWS V14.01,2013-02-21 20:38:00,
2013-02-21 15:43:00,83.0,67.2,29.96,SE,126,3.0,10.0,59,0.00,,---,0.00,VWS V14.01,2013-02-21 20:43:00,
2013-02-21 15:48:00,82.6,66.3,29.96,ESE,121,1.0,10.0,58,0.00,,---,0.00,VWS V14.01,2013-02-21 20:48:00,
2013-02-21 15:53:00,82.2,66.9,29.96,SE,138,8.0,10.0,60,0.00,,---,0.00,VWS V14.01,2013-02-21 20:53:00,
2013-02-21 15:58:00,81.4,67.6,29.96,SE,132,2.0,10.0,63,0.00,,---,0.00,VWS V14.01,2013-02-21 20:58:00,
2013-02-21 16:03:00,81.4,67.1,29.96,ESE,109,6.0,6.0,62,0.00,,---,0.00,VWS V14.01,2013-02-21 21:03:00,
2013-02-21 16:08:00,81.2,67.9,29.96,ESE,115,2.0,7.0,64,0.00,,---,0.00,VWS V14.01,2013-02-21 21:08:00,
2013-02-21 16:13:00,81.8,68.0,29.96,ESE,103,5.0,9.0,63,0.00,,---,0.00,VWS V14.01,2013-02-21 21:13:00,
2013-02-21 16:19:00,81.6,68.2,29.96,SE,140,3.0,9.0,64,0.00,,---,0.00,VWS V14.01,2013-02-21 21:19:00,
2013-02-21 16:24:00,81.6,67.8,29.96,East,88,3.0,9.0,63,0.00,,---,0.00,VWS V14.01,2013-02-21 21:24:00,
2013-02-21 16:29:00,81.4,67.1,29.96,East,96,4.0,9.0,62,0.00,,---,0.00,VWS V14.01,2013-02-21 21:29:00,
2013-02-21 16:34:00,81.4,66.7,29.97,East,101,3.0,6.0,61,0.00,,---,0.00,VWS V14.01,2013-02-21 21:34:00,
2013-02-21 16:39:00,81.2,66.9,29.97,ESE,114,1.0,6.0,62,0.00,,---,0.00,VWS V14.01,2013-02-21 21:39:00,
2013-02-21 16:44:00,80.7,67.4,29.97,ESE,105,3.0,6.0,64,0.00,,---,0.00,VWS V14.01,2013-02-21 21:44:00,
2013-02-21 16:49:00,81.1,67.3,29.96,ESE,110,2.0,6.0,63,0.00,,---,0.00,VWS V14.01,2013-02-21 21:49:00,
2013-02-21 16:54:00,81.4,67.6,29.96,ESE,111,3.0,6.0,63,0.00,,---,0.00,VWS V14.01,2013-02-21 21:54:00,
2013-02-21 16:59:00,80.9,68.0,29.96,ESE,113,3.0,6.0,65,0.00,,---,0.00,VWS V14.01,2013-02-21 21:59:00,
2013-02-21 17:04:00,80.5,67.2,29.97,ESE,115,3.0,3.0,64,0.00,,---,0.00,VWS V14.01,2013-02-21 22:04:00,
2013-02-21 17:09:00,79.9,67.1,29.97,SE,134,6.0,9.0,65,0.00,,---,0.00,VWS V14.01,2013-02-21 22:09:00,
2013-02-21 17:14:00,79.0,67.6,29.97,East,97,4.0,9.0,68,0.00,,---,0.00,VWS V14.01,2013-02-21 22:14:00,
2013-02-21 17:19:00,78.5,67.9,29.97,SE,130,3.0,9.0,70,0.00,,---,0.00,VWS V14.01,2013-02-21 22:19:00,
2013-02-21 17:24:00,78.5,67.9,29.97,SE,136,3.0,9.0,70,0.00,,---,0.00,VWS V14.01,2013-02-21 22:24:00,
2013-02-21 17:29:00,78.1,67.9,29.97,ESE,122,5.0,9.0,71,0.00,,---,0.00,VWS V14.01,2013-02-21 22:29:00,
2013-02-21 17:34:00,77.4,67.7,29.97,SE,129,5.0,8.0,72,0.00,,---,0.00,VWS V14.01,2013-02-21 22:34:00,
2013-02-21 17:39:00,77.0,67.3,29.97,ESE,122,5.0,8.0,72,0.00,,---,0.00,VWS V14.01,2013-02-21 22:39:00,
2013-02-21 17:44:00,76.8,67.9,29.97,ESE,121,2.0,8.0,74,0.00,,---,0.00,VWS V14.01,2013-02-21 22:44:00,
2013-02-21 17:50:00,76.5,68.0,29.97,ESE,118,4.0,8.0,75,0.00,,---,0.00,VWS V14.01,2013-02-21 22:50:00,
2013-02-21 17:55:00,76.1,67.6,29.97,ESE,115,2.0,8.0,75,0.00,,---,0.00,VWS V14.01,2013-02-21 22:55:00,
2013-02-21 18:00:00,76.0,67.9,29.97,ESE,115,2.0,8.0,76,0.00,,---,0.00,VWS V14.01,2013-02-21 23:00:00,
2013-02-21 18:05:00,75.6,67.5,29.97,ESE,116,2.0,3.0,76,0.00,,---,0.00,VWS V14.01,2013-02-21 23:05:00,
2013-02-21 18:10:00,75.4,67.7,29.97,ESE,115,1.0,5.0,77,0.00,,---,0.00,VWS V14.01,2013-02-21 23:10:00,
2013-02-21 18:15:00,75.3,67.6,29.97,ESE,117,3.0,5.0,77,0.00,,---,0.00,VWS V14.01,2013-02-21 23:15:00,
2013-02-21 18:20:00,74.9,67.2,29.97,ESE,118,0.0,5.0,77,0.00,,---,0.00,VWS V14.01,2013-02-21 23:20:00,
2013-02-21 18:25:00,74.6,66.9,29.97,ESE,122,3.0,5.0,77,0.00,,---,0.00,VWS V14.01,2013-02-21 23:25:00,
2013-02-21 18:30:00,74.4,67.1,29.97,ESE,119,1.0,6.0,78,0.00,,---,0.00,VWS V14.01,2013-02-21 23:30:00,
2013-02-21 18:35:00,74.2,67.3,29.97,ESE,119,1.0,4.0,79,0.00,,---,0.00,VWS V14.01,2013-02-21 23:35:00,
2013-02-21 18:40:00,74.0,67.1,29.97,ESE,119,2.0,4.0,79,0.00,,---,0.00,VWS V14.01,2013-02-21 23:40:00,
2013-02-21 18:45:00,73.9,67.3,29.97,ESE,119,1.0,4.0,80,0.00,,---,0.00,VWS V14.01,2013-02-21 23:45:00,
2013-02-21 18:50:00,73.7,67.2,29.97,ESE,118,3.0,6.0,80,0.00,,---,0.00,VWS V14.01,2013-02-21 23:50:00,
2013-02-21 18:55:00,73.7,67.2,29.97,ESE,119,2.0,6.0,80,0.00,,---,0.00,VWS V14.01,2013-02-21 23:55:00,
2013-02-21 19:00:00,73.5,67.0,29.97,ESE,119,0.0,6.0,80,0.00,,---,0.00,VWS V14.01,2013-02-22 00:00:00,
2013-02-21 19:05:00,73.5,67.0,29.97,ESE,118,3.0,3.0,80,0.00,,---,0.00,VWS V14.01,2013-02-22 00:05:00,
2013-02-21 19:11:00,73.3,66.8,29.97,ESE,118,1.0,4.0,80,0.00,,---,0.00,VWS V14.01,2013-02-22 00:11:00,
2013-02-21 19:16:00,73.3,67.1,29.97,ESE,118,0.0,4.0,81,0.00,,---,0.00,VWS V14.01,2013-02-22 00:16:00,
2013-02-21 19:21:00,73.2,67.0,29.97,ESE,118,1.0,4.0,81,0.00,,---,0.00,VWS V14.01,2013-02-22 00:21:00,
2013-02-21 19:26:00,73.0,66.8,29.97,ESE,118,1.0,4.0,81,0.00,,---,0.00,VWS V14.01,2013-02-22 00:26:00,
2013-02-21 19:31:00,72.8,66.6,29.98,ESE,118,4.0,4.0,81,0.00,,---,0.00,VWS V14.01,2013-02-22 00:31:00,
2013-02-21 19:36:00,72.7,66.5,29.98,ESE,118,3.0,4.0,81,0.00,,---,0.00,VWS V14.01,2013-02-22 00:36:00,
2013-02-21 19:41:00,72.7,66.5,29.98,ESE,118,0.0,5.0,81,0.00,,---,0.00,VWS V14.01,2013-02-22 00:41:00,
2013-02-21 19:46:00,72.7,66.2,29.97,ESE,118,0.0,5.0,80,0.00,,---,0.00,VWS V14.01,2013-02-22 00:46:00,
2013-02-21 19:51:00,72.3,66.2,29.97,ESE,118,0.0,5.0,81,0.00,,---,0.00,VWS V14.01,2013-02-22 00:51:00,
2013-02-21 19:56:00,72.1,65.9,29.97,ESE,118,1.0,5.0,81,0.00,,---,0.00,VWS V14.01,2013-02-22 00:56:00,
2013-02-21 20:01:00,72.1,65.9,29.98,ESE,118,0.0,5.0,81,0.00,,---,0.00,VWS V14.01,2013-02-22 01:01:00,
2013-02-21 20:06:00,71.6,65.8,29.98,ESE,118,0.0,1.0,82,0.00,,---,0.00,VWS V14.01,2013-02-22 01:06:00,
2013-02-21 20:11:00,71.5,65.7,29.98,ESE,118,0.0,1.0,82,0.00,,---,0.00,VWS V14.01,2013-02-22 01:11:00,
2013-02-21 20:16:00,71.5,65.4,29.99,ESE,118,0.0,1.0,81,0.00,,---,0.00,VWS V14.01,2013-02-22 01:16:00,
2013-02-21 20:21:00,71.5,65.7,29.99,ESE,118,0.0,1.0,82,0.00,,---,0.00,VWS V14.01,2013-02-22 01:21:00,
2013-02-21 20:26:00,71.1,65.3,29.99,ESE,118,0.0,1.0,82,0.00,,---,0.00,VWS V14.01,2013-02-22 01:26:00,
2013-02-21 20:32:00,70.8,65.4,29.99,ESE,118,0.0,1.0,83,0.00,,---,0.00,VWS V14.01,2013-02-22 01:32:00,
2013-02-21 20:37:00,70.8,65.4,29.99,ESE,118,0.0,0.0,83,0.00,,---,0.00,VWS V14.01,2013-02-22 01:37:00,
2013-02-21 20:42:00,70.6,65.2,29.99,ESE,118,0.0,0.0,83,0.00,,---,0.00,VWS V14.01,2013-02-22 01:42:00,
2013-02-21 20:47:00,70.3,65.2,29.99,ESE,118,0.0,0.0,84,0.00,,---,0.00,VWS V14.01,2013-02-22 01:47:00,
2013-02-21 20:52:00,70.1,65.4,29.99,ESE,118,1.0,2.0,85,0.00,,---,0.00,VWS V14.01,2013-02-22 01:52:00,
2013-02-21 20:57:00,70.1,65.1,29.99,ESE,118,0.0,2.0,84,0.00,,---,0.00,VWS V14.01,2013-02-22 01:57:00,
2013-02-21 21:02:00,69.9,65.2,29.99,ESE,118,0.0,2.0,85,0.00,,---,0.00,VWS V14.01,2013-02-22 02:02:00,
2013-02-21 21:07:00,69.8,65.1,29.99,ESE,118,0.0,0.0,85,0.00,,---,0.00,VWS V14.01,2013-02-22 02:07:00,
2013-02-21 21:12:00,69.6,65.2,29.99,ESE,118,0.0,1.0,86,0.00,,---,0.00,VWS V14.01,2013-02-22 02:12:00,
2013-02-21 21:17:00,69.6,65.2,29.99,ESE,118,0.0,1.0,86,0.00,,---,0.00,VWS V14.01,2013-02-22 02:17:00,
2013-02-21 21:22:00,69.6,65.6,29.99,ESE,118,0.0,1.0,87,0.00,,---,0.00,VWS V14.01,2013-02-22 02:22:00,
2013-02-21 21:27:00,69.4,65.7,29.99,ESE,118,0.0,1.0,88,0.00,,---,0.00,VWS V14.01,2013-02-22 02:27:00,
2013-02-21 21:32:00,69.4,65.7,29.99,ESE,118,0.0,1.0,88,0.00,,---,0.00,VWS V14.01,2013-02-22 02:32:00,
2013-02-21 21:37:00,69.6,65.9,29.99,ESE,118,0.0,0.0,88,0.00,,---,0.00,VWS V14.01,2013-02-22 02:37:00,
2013-02-21 21:42:00,69.4,65.7,29.99,ESE,118,0.0,0.0,88,0.00,,---,0.00,VWS V14.01,2013-02-22 02:42:00,
2013-02-21 21:47:00,69.1,65.7,29.99,ESE,118,0.0,0.0,89,0.00,,---,0.00,VWS V14.01,2013-02-22 02:47:00,
2013-02-21 21:52:00,68.9,65.8,29.99,ESE,118,0.0,0.0,90,0.00,,---,0.00,VWS V14.01,2013-02-22 02:52:00,
2013-02-21 21:57:00,69.1,66.1,29.99,ESE,118,0.0,1.0,90,0.00,,---,0.00,VWS V14.01,2013-02-22 02:57:00,
2013-02-21 22:02:00,69.1,66.1,30.00,ESE,118,0.0,0.0,90,0.00,,---,0.00,VWS V14.01,2013-02-22 03:02:00,
2013-02-21 22:08:00,68.9,65.8,30.00,ESE,118,0.0,0.0,90,0.00,,---,0.00,VWS V14.01,2013-02-22 03:08:00,
2013-02-21 22:13:00,68.8,65.8,30.00,ESE,118,0.0,0.0,90,0.00,,---,0.00,VWS V14.01,2013-02-22 03:13:00,
2013-02-21 22:18:00,68.6,65.9,29.99,ESE,118,0.0,0.0,91,0.00,,---,0.00,VWS V14.01,2013-02-22 03:18:00,
2013-02-21 22:23:00,68.4,66.0,29.99,ESE,118,0.0,0.0,92,0.00,,---,0.00,VWS V14.01,2013-02-22 03:23:00,
2013-02-21 22:28:00,68.4,66.0,29.99,ESE,118,0.0,0.0,92,0.00,,---,0.00,VWS V14.01,2013-02-22 03:28:00,
2013-02-21 22:33:00,68.4,66.3,30.00,ESE,118,0.0,0.0,93,0.00,,---,0.00,VWS V14.01,2013-02-22 03:33:00,
2013-02-21 22:38:00,68.4,66.3,30.00,ESE,118,0.0,1.0,93,0.00,,---,0.00,VWS V14.01,2013-02-22 03:38:00,
2013-02-21 22:43:00,68.4,66.3,30.00,ESE,118,0.0,1.0,93,0.00,,---,0.00,VWS V14.01,2013-02-22 03:43:00,
2013-02-21 22:48:00,68.4,66.6,30.00,ESE,118,0.0,1.0,94,0.00,,---,0.00,VWS V14.01,2013-02-22 03:48:00,
2013-02-21 22:53:00,68.4,66.6,30.00,ESE,118,2.0,2.0,94,0.00,,---,0.00,VWS V14.01,2013-02-22 03:53:00,
2013-02-21 22:58:00,68.6,67.1,30.00,ESE,118,1.0,2.0,95,0.00,,---,0.00,VWS V14.01,2013-02-22 03:58:00,
2013-02-21 23:03:00,68.6,67.1,30.00,ESE,118,0.0,0.0,95,0.00,,---,0.00,VWS V14.01,2013-02-22 04:03:00,
2013-02-21 23:08:00,68.8,67.0,30.00,ESE,118,0.0,1.0,94,0.00,,---,0.00,VWS V14.01,2013-02-22 04:08:00,
2013-02-21 23:13:00,68.9,67.4,30.00,ESE,118,1.0,2.0,95,0.00,,---,0.00,VWS V14.01,2013-02-22 04:13:00,
2013-02-21 23:18:00,69.1,67.3,29.99,ESE,118,0.0,2.0,94,0.00,,---,0.00,VWS V14.01,2013-02-22 04:18:00,
2013-02-21 23:23:00,69.1,67.3,29.99,ESE,118,0.0,2.0,94,0.00,,---,0.00,VWS V14.01,2013-02-22 04:23:00,
2013-02-21 23:28:00,69.4,67.6,29.99,ESE,118,0.0,2.0,94,0.00,,---,0.00,VWS V14.01,2013-02-22 04:28:00,
2013-02-21 23:34:00,69.6,67.8,29.99,ESE,118,0.0,2.0,94,0.00,,---,0.00,VWS V14.01,2013-02-22 04:34:00,
2013-02-21 23:39:00,69.8,68.0,29.99,ESE,118,1.0,3.0,94,0.00,,---,0.00,VWS V14.01,2013-02-22 04:39:00,
2013-02-21 23:44:00,69.8,68.0,29.99,ESE,118,2.0,3.0,94,0.00,,---,0.00,VWS V14.01,2013-02-22 04:44:00,
2013-02-21 23:49:00,69.8,68.0,29.99,ESE,118,3.0,3.0,94,0.00,,---,0.00,VWS V14.01,2013-02-22 04:49:00,
2013-02-21 23:54:00,70.1,68.0,29.99,ESE,118,0.0,3.0,93,0.00,,---,0.00,VWS V14.01,2013-02-22 04:54:00,
2013-02-21 23:59:00,70.1,68.0,29.99,ESE,118,1.0,3.0,93,0.00,,---,0.00,VWS V14.01,2013-02-22 04:59:00,